createdAt,value
2019-02-08T00:00:28.765Z,78.34
2019-02-08T00:02:56.943Z,78.32
2019-02-08T00:05:25.153Z,78.31
2019-02-08T00:07:53.407Z,78.32
2019-02-08T00:10:21.656Z,78.31
2019-02-08T00:12:49.846Z,78.29
2019-02-08T00:15:19.758Z,78.29
2019-02-08T00:17:47.928Z,78.29
2019-02-08T00:20:18.214Z,78.29
2019-02-08T00:22:46.486Z,78.27
2019-02-08T00:25:16.296Z,78.26
2019-02-08T00:27:44.487Z,78.27
2019-02-08T00:30:15.977Z,78.28
2019-02-08T00:32:44.158Z,78.31
2019-02-08T00:35:12.343Z,78.33
2019-02-08T00:37:40.537Z,78.34
2019-02-08T00:40:11.558Z,78.36
2019-02-08T00:42:39.746Z,78.36
2019-02-08T00:45:11.590Z,78.39
2019-02-08T00:47:39.774Z,78.41
2019-02-08T00:50:16.898Z,78.40
2019-02-08T00:52:45.086Z,78.40
2019-02-08T00:55:13.269Z,78.39
2019-02-08T00:57:41.457Z,78.39
2019-02-08T01:00:11.686Z,78.37
2019-02-08T01:02:40.215Z,78.38
2019-02-08T01:05:11.038Z,78.39
2019-02-08T01:07:39.254Z,78.41
2019-02-08T01:10:10.701Z,78.43
2019-02-08T01:12:39.059Z,78.45
2019-02-08T01:15:10.593Z,78.47
2019-02-08T01:17:38.979Z,78.47
2019-02-08T01:20:10.375Z,78.46
2019-02-08T01:22:38.570Z,78.49
2019-02-08T01:25:10.197Z,78.52
2019-02-08T01:27:38.388Z,78.58
2019-02-08T01:30:12.469Z,78.62
2019-02-08T01:32:40.666Z,78.64
2019-02-08T01:35:10.585Z,78.65
2019-02-08T01:37:38.776Z,78.66
2019-02-08T01:40:12.773Z,78.64
2019-02-08T01:42:40.969Z,78.65
2019-02-08T01:45:12.263Z,78.67
2019-02-08T01:47:40.454Z,78.68
2019-02-08T01:50:12.043Z,78.67
2019-02-08T01:52:40.239Z,78.68
2019-02-08T01:55:08.426Z,78.69
2019-02-08T01:57:36.651Z,78.70
2019-02-08T02:00:10.982Z,78.71
2019-02-08T02:02:39.202Z,78.74
2019-02-08T02:05:07.686Z,78.76
2019-02-08T02:07:35.846Z,78.82
2019-02-08T02:10:06.736Z,78.88
2019-02-08T02:12:34.923Z,78.87
2019-02-08T02:15:03.110Z,78.88
2019-02-08T02:17:31.319Z,78.95
2019-02-08T02:19:59.482Z,78.98
2019-02-08T02:22:27.669Z,79.03
2019-02-08T02:24:55.862Z,79.10
2019-02-08T02:27:24.050Z,79.16
2019-02-08T02:29:52.239Z,79.26
2019-02-08T02:32:20.435Z,79.31
2019-02-08T02:34:48.631Z,79.38
2019-02-08T02:37:16.819Z,79.42
2019-02-08T02:39:45.007Z,79.44
2019-02-08T02:42:13.189Z,79.48
2019-02-08T02:44:41.372Z,79.51
2019-02-08T02:47:09.552Z,79.56
2019-02-08T02:49:37.737Z,79.57
2019-02-08T02:52:06.590Z,79.58
2019-02-08T02:54:34.779Z,79.57
2019-02-08T02:57:02.961Z,79.57
2019-02-08T02:59:31.153Z,79.56
2019-02-08T03:01:59.372Z,79.57
2019-02-08T03:04:27.541Z,79.57
2019-02-08T03:06:55.722Z,79.59
2019-02-08T03:09:23.911Z,79.56
2019-02-08T03:11:52.098Z,79.59
2019-02-08T03:14:20.287Z,79.58
2019-02-08T03:16:48.480Z,79.58
2019-02-08T03:19:16.666Z,79.60
2019-02-08T03:21:44.852Z,79.59
2019-02-08T03:24:13.263Z,79.61
2019-02-08T03:26:41.408Z,79.63
2019-02-08T03:29:09.597Z,79.63
2019-02-08T03:31:37.836Z,79.66
2019-02-08T03:34:06.048Z,79.68
2019-02-08T03:36:34.225Z,79.71
2019-02-08T03:39:02.484Z,79.74
2019-02-08T03:41:30.668Z,79.76
2019-02-08T03:43:58.850Z,79.78
2019-02-08T03:46:27.048Z,79.79
2019-02-08T03:48:55.236Z,79.80
2019-02-08T03:51:23.429Z,79.80
2019-02-08T03:53:51.610Z,79.82
2019-02-08T03:56:19.790Z,79.86
2019-02-08T03:58:47.975Z,79.88
2019-02-08T04:01:16.181Z,79.90
2019-02-08T04:03:44.365Z,79.89
2019-02-08T04:06:12.563Z,79.89
2019-02-08T04:08:40.754Z,79.89
2019-02-08T04:11:08.993Z,79.87
2019-02-08T04:13:37.127Z,79.85
2019-02-08T04:16:05.338Z,79.83
2019-02-08T04:18:33.521Z,79.82
2019-02-08T04:21:01.737Z,79.82
2019-02-08T04:23:29.917Z,79.80
2019-02-08T04:25:58.127Z,79.80
2019-02-08T04:28:26.312Z,79.79
2019-02-08T04:30:54.546Z,79.80
2019-02-08T04:33:22.736Z,79.80
2019-02-08T04:35:50.921Z,79.83
2019-02-08T04:38:19.131Z,79.82
2019-02-08T04:40:47.386Z,79.84
2019-02-08T04:43:15.591Z,79.86
2019-02-08T04:45:43.782Z,79.83
2019-02-08T04:48:12.007Z,79.81
2019-02-08T04:50:40.191Z,79.82
2019-02-08T04:53:08.381Z,79.80
2019-02-08T04:55:36.571Z,79.81
2019-02-08T04:58:04.784Z,79.81
2019-02-08T05:00:36.537Z,79.79
2019-02-08T05:03:05.659Z,79.80
2019-02-08T05:05:33.852Z,79.81
2019-02-08T05:08:02.034Z,79.80
2019-02-08T05:10:34.347Z,79.80
2019-02-08T05:13:02.495Z,79.80
2019-02-08T05:15:30.687Z,79.80
2019-02-08T05:17:58.952Z,79.79
2019-02-08T05:20:29.741Z,79.80
2019-02-08T05:22:57.931Z,79.79
2019-02-08T05:25:26.126Z,79.79
2019-02-08T05:27:54.311Z,79.80
2019-02-08T05:30:27.200Z,79.82
2019-02-08T05:32:55.390Z,79.82
2019-02-08T05:35:23.565Z,79.85
2019-02-08T05:37:51.753Z,79.89
2019-02-08T05:40:21.573Z,79.91
2019-02-08T05:42:49.761Z,79.91
2019-02-08T05:45:22.864Z,79.92
2019-02-08T05:47:51.054Z,79.93
2019-02-08T05:50:21.936Z,79.94
2019-02-08T05:52:50.151Z,79.93
2019-02-08T05:55:23.414Z,79.93
2019-02-08T05:57:51.627Z,79.92
2019-02-08T06:00:36.133Z,79.92
2019-02-08T06:03:04.755Z,79.91
2019-02-08T06:05:32.934Z,79.89
2019-02-08T06:08:01.166Z,79.90
2019-02-08T06:10:29.316Z,79.89
2019-02-08T06:12:57.500Z,79.87
2019-02-08T06:15:26.058Z,79.87
2019-02-08T06:17:54.261Z,79.87
2019-02-08T06:20:24.078Z,79.85
2019-02-08T06:22:52.351Z,79.87
2019-02-08T06:25:21.577Z,79.86
2019-02-08T06:27:49.896Z,79.90
2019-02-08T06:30:29.454Z,79.91
2019-02-08T06:32:57.662Z,79.88
2019-02-08T06:35:26.487Z,79.85
2019-02-08T06:37:54.691Z,79.82
2019-02-08T06:40:24.735Z,79.80
2019-02-08T06:42:53.006Z,79.78
2019-02-08T06:45:23.123Z,79.77
2019-02-08T06:47:51.313Z,79.74
2019-02-08T06:50:24.391Z,79.74
2019-02-08T06:52:52.650Z,79.75
2019-02-08T06:55:20.922Z,79.75
2019-02-08T06:58:05.787Z,79.72
2019-02-08T07:00:53.899Z,79.70
2019-02-08T07:03:26.832Z,79.70
2019-02-08T07:06:02.075Z,79.70
2019-02-08T07:08:47.996Z,79.70
2019-02-08T07:11:23.941Z,79.70
2019-02-08T07:13:56.954Z,79.71
2019-02-08T07:16:42.969Z,79.72
2019-02-08T07:19:29.062Z,79.69
2019-02-08T07:22:17.321Z,79.66
2019-02-08T07:24:49.871Z,79.64
2019-02-08T07:27:19.688Z,79.61
2019-02-08T07:30:01.365Z,79.59
2019-02-08T07:32:46.108Z,79.56
2019-02-08T07:35:18.825Z,79.55
2019-02-08T07:38:05.032Z,79.53
2019-02-08T07:40:38.408Z,79.50
2019-02-08T07:43:17.020Z,79.47
2019-02-08T07:45:54.080Z,79.46
2019-02-08T07:48:23.905Z,79.45
2019-02-08T07:51:10.256Z,79.42
2019-02-08T07:53:40.088Z,79.43
2019-02-08T07:56:09.901Z,79.44
2019-02-08T07:58:39.765Z,79.42
2019-02-08T08:01:09.610Z,79.42
2019-02-08T08:03:39.472Z,79.39
2019-02-08T08:06:15.293Z,79.36
2019-02-08T08:08:47.836Z,79.30
2019-02-08T08:11:23.342Z,79.26
2019-02-08T08:13:53.173Z,79.19
2019-02-08T08:16:37.993Z,79.12
2019-02-08T08:19:10.263Z,79.06
2019-02-08T08:21:40.101Z,79.06
2019-02-08T08:24:09.939Z,79.03
2019-02-08T08:26:43.086Z,78.92
2019-02-08T08:29:27.634Z,78.83
2019-02-08T08:31:57.614Z,78.81
2019-02-08T08:34:34.932Z,78.67
2019-02-08T08:37:28.990Z,78.62
2019-02-08T08:40:15.757Z,78.56
2019-02-08T08:42:49.746Z,78.55
2019-02-08T08:45:37.789Z,78.52
2019-02-08T08:48:30.544Z,78.49
2019-02-08T08:51:04.679Z,78.39
2019-02-08T08:54:09.289Z,78.35
2019-02-08T08:56:46.433Z,78.36
2019-02-08T08:59:23.856Z,78.34
2019-02-08T09:02:11.649Z,78.29
2019-02-08T09:04:45.850Z,78.33
2019-02-08T09:07:35.572Z,78.40
2019-02-08T09:10:42.676Z,78.32
2019-02-08T09:13:33.475Z,78.23
2019-02-08T09:16:33.740Z,78.10
2019-02-08T09:19:07.687Z,77.93
2019-02-08T09:21:47.892Z,77.70
2019-02-08T09:24:43.368Z,77.52
2019-02-08T09:27:37.739Z,77.54
2019-02-08T09:30:29.963Z,77.58
2019-02-08T09:33:13.094Z,77.70
2019-02-08T09:36:10.057Z,77.70
2019-02-08T09:38:56.532Z,77.75
2019-02-08T09:41:30.867Z,77.52
2019-02-08T09:44:17.512Z,77.37
2019-02-08T09:47:09.729Z,77.44
2019-02-08T09:49:58.914Z,77.45
2019-02-08T09:52:56.067Z,77.39
2019-02-08T09:55:57.774Z,77.41
2019-02-08T09:58:41.248Z,77.43
2019-02-08T10:01:29.186Z,77.57
2019-02-08T10:04:16.740Z,77.67
2019-02-08T10:06:57.332Z,77.43
2019-02-08T10:09:40.924Z,77.15
2019-02-08T10:12:23.674Z,77.22
2019-02-08T10:15:00.916Z,77.22
2019-02-08T10:17:38.101Z,77.35
2019-02-08T10:20:42.996Z,77.52
2019-02-08T10:23:20.672Z,77.43
2019-02-08T10:26:08.865Z,77.53
2019-02-08T10:28:52.462Z,76.79
2019-02-08T10:31:26.791Z,76.72
2019-02-08T10:34:26.917Z,77.09
2019-02-08T10:37:26.701Z,77.20
2019-02-08T10:40:31.097Z,77.08
2019-02-08T10:43:23.588Z,77.08
2019-02-08T10:46:07.078Z,77.18
2019-02-08T10:49:02.279Z,76.95
2019-02-08T10:51:42.851Z,76.90
2019-02-08T10:54:33.837Z,76.93
2019-02-08T10:57:13.455Z,76.66
2019-02-08T11:00:02.858Z,76.82
2019-02-08T11:03:07.628Z,76.91
2019-02-08T11:06:12.244Z,77.26
2019-02-08T11:09:16.657Z,77.19
2019-02-08T11:12:13.728Z,77.04
2019-02-08T11:15:18.340Z,76.95
2019-02-08T11:18:06.418Z,76.45
2019-02-08T11:20:34.614Z,76.47
2019-02-08T11:23:02.818Z,76.85
2019-02-08T11:25:30.996Z,77.04
2019-02-08T11:27:59.242Z,77.06
2019-02-08T11:30:27.429Z,77.20
2019-02-08T11:32:55.630Z,77.14
2019-02-08T11:35:23.815Z,77.08
2019-02-08T11:37:52.018Z,77.18
2019-02-08T11:40:23.204Z,77.14
2019-02-08T11:42:51.409Z,77.24
2019-02-08T11:45:19.684Z,77.37
2019-02-08T11:47:47.864Z,77.40
2019-02-08T11:50:21.299Z,77.47
2019-02-08T11:52:49.545Z,77.54
2019-02-08T11:55:17.768Z,77.50
2019-02-08T11:57:45.943Z,77.45
2019-02-08T12:00:17.745Z,77.33
2019-02-08T12:02:45.945Z,77.25
2019-02-08T12:05:14.122Z,77.27
2019-02-08T12:07:42.305Z,77.41
2019-02-08T12:10:10.529Z,77.10
2019-02-08T12:12:38.680Z,77.19
2019-02-08T12:15:10.125Z,77.27
2019-02-08T12:17:38.299Z,77.44
2019-02-08T12:20:09.905Z,77.21
2019-02-08T12:22:38.106Z,77.31
2019-02-08T12:25:12.010Z,77.36
2019-02-08T12:27:40.184Z,76.98
2019-02-08T12:30:28.483Z,77.18
2019-02-08T12:32:56.655Z,77.24
2019-02-08T12:35:24.843Z,77.22
2019-02-08T12:37:53.056Z,76.99
2019-02-08T12:40:21.220Z,76.97
2019-02-08T12:42:49.430Z,77.13
2019-02-08T12:45:19.565Z,77.26
2019-02-08T12:47:47.795Z,77.24
2019-02-08T12:50:17.403Z,77.34
2019-02-08T12:52:45.634Z,77.37
2019-02-08T12:55:16.195Z,77.48
2019-02-08T12:57:44.366Z,77.52
2019-02-08T13:00:18.437Z,77.33
2019-02-08T13:02:46.613Z,77.19
2019-02-08T13:05:16.049Z,77.35
2019-02-08T13:07:44.235Z,77.25
2019-02-08T13:10:15.674Z,77.29
2019-02-08T13:12:43.855Z,77.21
2019-02-08T13:15:14.486Z,77.23
2019-02-08T13:17:42.718Z,77.06
2019-02-08T13:20:16.833Z,77.09
2019-02-08T13:22:45.012Z,77.17
2019-02-08T13:25:13.432Z,77.09
2019-02-08T13:27:41.608Z,77.02
2019-02-08T13:30:15.812Z,77.18
2019-02-08T13:32:43.992Z,77.00
2019-02-08T13:35:12.175Z,77.08
2019-02-08T13:37:40.352Z,76.91
2019-02-08T13:40:14.371Z,77.20
2019-02-08T13:42:42.553Z,77.14
2019-02-08T13:45:12.467Z,76.97
2019-02-08T13:47:40.689Z,77.05
2019-02-08T13:50:23.551Z,77.27
2019-02-08T13:52:51.743Z,77.11
2019-02-08T13:55:21.880Z,77.23
2019-02-08T13:57:50.055Z,77.23
2019-02-08T14:00:35.769Z,77.15
2019-02-08T14:03:04.498Z,77.29
2019-02-08T14:05:32.706Z,77.10
2019-02-08T14:08:00.893Z,77.20
2019-02-08T14:10:29.088Z,77.45
2019-02-08T14:12:57.265Z,77.17
2019-02-08T14:15:34.013Z,77.10
2019-02-08T14:18:02.201Z,77.16
2019-02-08T14:20:30.497Z,77.31
2019-02-08T14:22:59.182Z,77.25
2019-02-08T14:25:27.392Z,77.23
2019-02-08T14:27:55.585Z,77.10
2019-02-08T14:30:35.364Z,76.78
2019-02-08T14:33:04.528Z,77.04
2019-02-08T14:35:32.851Z,77.02
2019-02-08T14:38:02.366Z,77.13
2019-02-08T14:40:30.883Z,77.04
2019-02-08T14:42:59.164Z,77.22
2019-02-08T14:45:28.343Z,77.19
2019-02-08T14:47:56.527Z,77.20
2019-02-08T14:50:26.507Z,77.25
2019-02-08T14:52:54.857Z,77.32
2019-02-08T14:55:23.028Z,77.40
2019-02-08T14:57:52.145Z,77.53
2019-02-08T15:00:21.961Z,77.55
2019-02-08T15:02:50.166Z,77.43
2019-02-08T15:05:19.584Z,77.63
2019-02-08T15:07:47.849Z,77.70
2019-02-08T15:10:19.288Z,77.66
2019-02-08T15:12:47.463Z,77.77
2019-02-08T15:15:15.662Z,77.75
2019-02-08T15:17:43.847Z,77.62
2019-02-08T15:20:24.100Z,77.64
2019-02-08T15:22:52.275Z,77.53
2019-02-08T15:25:20.457Z,77.69
2019-02-08T15:27:48.652Z,77.80
2019-02-08T15:30:22.332Z,77.82
2019-02-08T15:32:50.512Z,77.99
2019-02-08T15:35:24.383Z,77.95
2019-02-08T15:37:52.581Z,78.02
2019-02-08T15:40:37.902Z,78.13
2019-02-08T15:43:07.043Z,78.05
2019-02-08T15:45:35.483Z,78.21
2019-02-08T15:48:03.721Z,78.36
2019-02-08T15:50:31.929Z,78.37
2019-02-08T15:53:00.106Z,78.46
2019-02-08T15:55:30.820Z,78.44
2019-02-08T15:57:59.071Z,78.48
2019-02-08T16:00:29.738Z,78.58
2019-02-08T16:02:58.105Z,78.60
2019-02-08T16:05:26.552Z,78.66
2019-02-08T16:07:54.727Z,78.67
2019-02-08T16:10:22.906Z,78.69
2019-02-08T16:12:51.123Z,78.73
2019-02-08T16:15:29.384Z,78.78
2019-02-08T16:17:58.552Z,78.82
2019-02-08T16:20:29.097Z,78.86
2019-02-08T16:22:58.720Z,78.87
2019-02-08T16:25:28.638Z,78.85
2019-02-08T16:27:56.814Z,78.88
2019-02-08T16:30:30.642Z,78.96
2019-02-08T16:32:58.980Z,78.99
2019-02-08T16:35:27.380Z,79.06
2019-02-08T16:37:55.528Z,79.10
2019-02-08T16:40:30.056Z,79.14
2019-02-08T16:42:58.303Z,79.19
2019-02-08T16:45:29.183Z,79.24
2019-02-08T16:47:57.456Z,79.28
2019-02-08T16:50:30.189Z,79.30
2019-02-08T16:52:58.376Z,79.33
2019-02-08T16:55:26.580Z,79.36
2019-02-08T16:57:54.759Z,79.37
2019-02-08T17:00:31.306Z,79.44
2019-02-08T17:03:01.152Z,79.48
2019-02-08T17:05:29.984Z,79.51
2019-02-08T17:07:58.162Z,79.54
2019-02-08T17:10:26.345Z,79.55
2019-02-08T17:12:54.544Z,79.59
2019-02-08T17:15:32.739Z,79.59
2019-02-08T17:18:00.950Z,79.62
2019-02-08T17:20:40.939Z,79.64
2019-02-08T17:23:09.118Z,79.68
2019-02-08T17:25:37.346Z,79.69
2019-02-08T17:28:06.049Z,79.71
2019-02-08T17:30:34.255Z,79.75
2019-02-08T17:33:02.437Z,79.77
2019-02-08T17:35:30.616Z,79.77
2019-02-08T17:37:58.868Z,79.80
2019-02-08T17:40:29.749Z,79.81
2019-02-08T17:42:57.934Z,79.82
2019-02-08T17:45:26.109Z,79.83
2019-02-08T17:47:54.529Z,79.81
2019-02-08T17:50:25.109Z,79.82
2019-02-08T17:52:53.296Z,79.82
2019-02-08T17:55:30.563Z,79.84
2019-02-08T17:58:03.546Z,79.87
2019-02-08T18:00:48.255Z,79.87
2019-02-08T18:03:16.430Z,79.90
2019-02-08T18:05:44.604Z,79.93
2019-02-08T18:08:12.812Z,79.92
2019-02-08T18:10:40.991Z,79.94
2019-02-08T18:13:09.169Z,79.97
2019-02-08T18:15:37.355Z,79.98
2019-02-08T18:18:08.200Z,80.00
2019-02-08T18:20:39.475Z,80.01
2019-02-08T18:23:07.659Z,80.01
2019-02-08T18:25:35.866Z,80.05
2019-02-08T18:28:10.812Z,80.06
2019-02-08T18:30:34.121Z,80.09
2019-02-08T18:33:02.383Z,80.11
2019-02-08T18:35:30.669Z,80.13
2019-02-08T18:37:59.042Z,80.12
2019-02-08T18:40:27.245Z,80.14
2019-02-08T18:42:55.455Z,80.14
2019-02-08T18:45:26.335Z,80.14
2019-02-08T18:47:54.519Z,80.16
2019-02-08T18:50:24.961Z,80.17
2019-02-08T18:52:53.157Z,80.15
2019-02-08T18:55:21.345Z,80.16
2019-02-08T18:57:49.543Z,80.19
2019-02-08T19:00:29.302Z,80.16
2019-02-08T19:02:57.745Z,80.17
2019-02-08T19:05:25.965Z,80.19
2019-02-08T19:07:54.152Z,80.21
2019-02-08T19:10:23.189Z,80.21
2019-02-08T19:12:51.364Z,80.22
2019-02-08T19:15:21.484Z,80.23
2019-02-08T19:17:49.662Z,80.23
2019-02-08T19:20:22.555Z,80.21
2019-02-08T19:22:50.753Z,80.23
2019-02-08T19:25:21.841Z,80.22
2019-02-08T19:27:50.092Z,80.22
2019-02-08T19:30:20.610Z,80.24
2019-02-08T19:32:48.796Z,80.25
2019-02-08T19:35:17.145Z,80.27
2019-02-08T19:37:45.334Z,80.27
2019-02-08T19:40:19.118Z,80.29
2019-02-08T19:42:47.341Z,80.29
2019-02-08T19:45:17.570Z,80.29
2019-02-08T19:47:45.797Z,80.30
2019-02-08T19:50:28.897Z,80.32
2019-02-08T19:52:57.078Z,80.33
2019-02-08T19:55:25.267Z,80.33
2019-02-08T19:57:53.551Z,80.33
2019-02-08T20:00:29.901Z,80.34
2019-02-08T20:02:58.158Z,80.36
2019-02-08T20:05:26.317Z,80.36
2019-02-08T20:07:55.656Z,80.38
2019-02-08T20:10:26.662Z,80.39
2019-02-08T20:12:54.874Z,80.39
2019-02-08T20:15:23.075Z,80.40
2019-02-08T20:17:51.263Z,80.38
2019-02-08T20:20:19.472Z,80.39
2019-02-08T20:22:47.668Z,80.36
2019-02-08T20:25:21.088Z,80.37
2019-02-08T20:27:49.272Z,80.37
2019-02-08T20:30:19.880Z,80.38
2019-02-08T20:32:48.141Z,80.36
2019-02-08T20:35:20.521Z,80.36
2019-02-08T20:37:49.069Z,80.35
2019-02-08T20:40:25.846Z,80.35
2019-02-08T20:42:54.063Z,80.35
2019-02-08T20:45:24.196Z,80.37
2019-02-08T20:47:53.324Z,80.36
2019-02-08T20:50:22.146Z,80.39
2019-02-08T20:52:50.409Z,80.38
2019-02-08T20:55:19.235Z,80.40
2019-02-08T20:57:48.360Z,80.39
2019-02-08T21:00:26.849Z,80.39
2019-02-08T21:02:55.589Z,80.39
2019-02-08T21:05:24.666Z,80.39
2019-02-08T21:07:53.797Z,80.42
2019-02-08T21:10:21.979Z,80.39
2019-02-08T21:12:53.200Z,80.37
2019-02-08T21:15:23.720Z,80.30
2019-02-08T21:17:51.905Z,80.29
2019-02-08T21:20:21.082Z,80.26
2019-02-08T21:22:53.614Z,80.23
2019-02-08T21:25:30.617Z,80.22
2019-02-08T21:27:58.810Z,80.21
2019-02-08T21:30:26.995Z,80.23
2019-02-08T21:32:55.177Z,80.23
2019-02-08T21:35:23.439Z,80.24
2019-02-08T21:37:51.605Z,80.23
2019-02-08T21:40:30.295Z,80.26
2019-02-08T21:42:59.502Z,80.27
2019-02-08T21:45:33.162Z,80.29
2019-02-08T21:48:01.346Z,80.29
2019-02-08T21:50:29.681Z,80.29
2019-02-08T21:52:58.355Z,80.31
2019-02-08T21:55:28.673Z,80.33
2019-02-08T21:57:59.076Z,80.33
2019-02-08T22:00:29.109Z,80.30
2019-02-08T22:02:58.796Z,80.31
2019-02-08T22:05:32.704Z,80.31
2019-02-08T22:08:00.894Z,80.31
2019-02-08T22:10:30.016Z,80.31
2019-02-08T22:12:58.208Z,80.32
2019-02-08T22:15:29.299Z,80.33
2019-02-08T22:17:57.497Z,80.32
2019-02-08T22:20:25.702Z,80.33
2019-02-08T22:22:54.876Z,80.32
2019-02-08T22:25:27.662Z,80.32
2019-02-08T22:27:56.873Z,80.31
2019-02-08T22:30:28.475Z,80.35
2019-02-08T22:33:01.678Z,80.35
2019-02-08T22:35:29.844Z,80.34
2019-02-08T22:37:58.039Z,80.35
2019-02-08T22:40:26.597Z,80.36
2019-02-08T22:42:55.757Z,80.37
2019-02-08T22:45:34.591Z,80.36
2019-02-08T22:48:03.874Z,80.37
2019-02-08T22:50:32.055Z,80.38
2019-02-08T22:53:01.260Z,80.37
2019-02-08T22:55:33.987Z,80.38
2019-02-08T22:58:02.173Z,80.37
2019-02-08T23:00:38.406Z,80.35
2019-02-08T23:03:09.097Z,80.33
2019-02-08T23:05:45.019Z,80.34
2019-02-08T23:08:09.780Z,80.34
2019-02-08T23:10:39.602Z,80.33
2019-02-08T23:13:16.739Z,80.33
2019-02-08T23:15:44.959Z,80.33
2019-02-08T23:18:13.170Z,80.30
2019-02-08T23:20:44.425Z,80.32
2019-02-08T23:23:12.611Z,80.30
2019-02-08T23:25:41.699Z,80.31
2019-02-08T23:28:09.887Z,80.30
2019-02-08T23:30:38.082Z,80.28
2019-02-08T23:33:06.292Z,80.27
2019-02-08T23:35:34.461Z,80.26
2019-02-08T23:38:02.647Z,80.25
2019-02-08T23:40:30.819Z,80.25
2019-02-08T23:42:59.014Z,80.24
2019-02-08T23:45:27.198Z,80.21
2019-02-08T23:47:55.388Z,80.20
2019-02-08T23:50:24.530Z,80.17
2019-02-08T23:52:52.707Z,80.17
2019-02-08T23:55:23.015Z,80.17
2019-02-08T23:57:51.247Z,80.16
